Terminal Aerodrome Forecast
Issued by NWS Columbia, SC

Home | Current Version | Previous Version | Text Only | Print | Product List | Glossary On
Versions: 1 2 3 4 5 6 7 8 9 10 11 12 13 14 15 16 17 18 19 20 21 22 23 24 25 26 27 28 29
000
FTUS42 KCAE 251300 AAB
TAFCAE
TAF AMD
KCAE 251334Z 2514/2612 VRB04KT 5SM -RA SCT025 OVC045
      TEMPO 2514/2516 2SM RA BR OVC025
     FM251600 17008KT P6SM VCSH SCT007 OVC020 WS020/22030KT
     FM252100 21010KT P6SM VCSH BKN015
     FM260300 24009KT P6SM FEW050 BKN150=

USA.gov is the U.S. government's official web portal to all federal, state and local government web resources and services.